Terminal Aerodrome Forecast
Issued by NWS

Home | Current Version | Previous Version | Text Only | Print | Product List | Glossary On
Versions: 1 2 3 4 5 6 7 8 9 10 11 12 13 14 15 16 17 18 19 20 21 22 23 24 25 26 27 28 29 30 31 32 33 34 35
000
FTUS44 KFWD 281127
TAFGKY
TAF
KGKY 281127Z 2812/2912 02010KT P6SM SCT020 OVC035
     FM281300 02013KT P6SM -RA OVC020
      TEMPO 2813/2817 4SM -RA BR BKN015 OVC025
     FM281800 01014KT P6SM BKN025
     FM282300 36010KT P6SM SCT050
     FM290600 31005KT P6SM FEW060=

USA.gov is the U.S. government's official web portal to all federal, state and local government web resources and services.